Atlantic Horizon — C6XI2 — position and weather

sailwx.info

Track history (hours):
 
Tides and Currents Weather Stations Pressure Air Temp Water Temp Dewpoint Dewpoint Depression Visibility Wind Speed Wind Dir Waves Ship Positions

Atlantic Horizon

Last reported at 2014-Oct-18 08:08 UTC. Time now 2014-Oct-24 07:48 UTC.
Position N 46°33' W 072°09'.

Length 225 m; draft 10.9 m.

Type: Cargo ship. MMSI: 311010300.

Date/timePositionNaut miles runAvg speedWind from/ knotsBaromVisibWave heightAir tempDewpointWater temp
2014-Oct-18 08:08N 46°33' W 072°09'6 9.9
2014-Oct-18 07:33N 46°29' W 072°14'1010.2
2014-Oct-18 06:34N 46°23' W 072°27'10 9.8
2014-Oct-18 05:33N 46°16' W 072°37'1010.1
2014-Oct-18 04:33N 46°12' W 072°51'1410.3
2014-Oct-18 03:13N 46°03' W 073°06'35 4.5
2014-Oct-17 19:31N 45°33' W 073°31'0 0.0
2014-Oct-17 17:19N 45°33' W 073°31'0 0.0
2014-Oct-17 15:31N 45°33' W 073°31'0 0.0
2014-Oct-17 14:07N 45°33' W 073°31'0 0.0
2014-Oct-17 11:25N 45°33' W 073°31'0 0.0
2014-Oct-17 09:19N 45°33' W 073°31'0 0.0
2014-Oct-17 08:25N 45°33' W 073°31'0 0.0
2014-Oct-16 13:10N 45°33' W 073°31'0 0.0
2014-Oct-16 12:13N 45°33' W 073°31'0 0.0
2014-Oct-16 11:04N 45°33' W 073°31'0 0.0
2014-Oct-16 10:16N 45°33' W 073°31'0 0.0
2014-Oct-16 08:22N 45°33' W 073°31'0 0.0
2014-Oct-16 07:04N 45°33' W 073°31'0 0.0
2014-Oct-16 05:28N 45°33' W 073°31'0 0.0
2014-Oct-16 04:25N 45°33' W 073°31'0 0.0
2014-Oct-16 03:28N 45°33' W 073°31'0 0.0
2014-Oct-16 02:31N 45°33' W 073°31'0 0.0
2014-Oct-16 01:31N 45°33' W 073°31'0 0.0
2014-Oct-16 00:31N 45°33' W 073°31'0 0.0
2014-Oct-15 23:28N 45°33' W 073°31'0 0.0
2014-Oct-15 22:28N 45°33' W 073°31'0 0.0
2014-Oct-15 21:28N 45°33' W 073°31'0 0.0
2014-Oct-15 20:28N 45°33' W 073°31'0 0.0
2014-Oct-15 19:28N 45°33' W 073°31'0 0.0
2014-Oct-15 18:31N 45°33' W 073°31'0 0.0
2014-Oct-15 11:10N 45°33' W 073°31'0 0.0
2014-Oct-15 10:28N 45°33' W 073°31'0 0.0
2014-Oct-15 09:28N 45°33' W 073°31'0 0.0
2014-Oct-15 08:10N 45°33' W 073°31'0 0.0
2014-Oct-15 07:28N 45°33' W 073°31'0 0.0
2014-Oct-15 06:22N 45°33' W 073°31'0 0.0
2014-Oct-15 05:22N 45°33' W 073°31'0 0.0
2014-Oct-15 04:10N 45°33' W 073°31'0 0.0
2014-Oct-15 03:22N 45°33' W 073°31'0 0.0
2014-Oct-15 02:28N 45°33' W 073°31'0 0.0
2014-Oct-15 01:28N 45°33' W 073°31'0 0.0
2014-Oct-14 17:25N 45°33' W 073°31'0 0.0
2014-Oct-14 16:04N 45°33' W 073°31'0 0.0
2014-Oct-14 15:25N 45°33' W 073°31'0 0.0
2014-Oct-14 14:25N 45°33' W 073°31'0 0.0
2014-Oct-14 13:13N 45°33' W 073°31'0 0.0
2014-Oct-14 12:31N 45°33' W 073°31'0 0.0
2014-Oct-14 11:31N 45°33' W 073°31'0 0.0
2014-Oct-14 10:31N 45°33' W 073°31'0 0.0
2014-Oct-14 09:31N 45°33' W 073°31'0 0.0
2014-Oct-14 08:31N 45°33' W 073°31'0 0.0
2014-Oct-14 07:31N 45°33' W 073°31'0 0.0
2014-Oct-14 06:31N 45°33' W 073°31'0 0.0
2014-Oct-14 05:31N 45°33' W 073°31'0 0.0
2014-Oct-14 04:31N 45°33' W 073°31'0 0.0
2014-Oct-14 03:28N 45°33' W 073°31'0 0.0
2014-Oct-14 02:31N 45°33' W 073°31'0 0.0
2014-Oct-14 01:33N 45°33' W 073°31'2 2.0
2014-Oct-14 00:33N 45°35' W 073°30'8 7.7
2014-Oct-13 23:33N 45°42' W 073°26'9 8.6
2014-Oct-13 22:34N 45°49' W 073°19'10 9.5
2014-Oct-13 21:33N 45°58' W 073°12'3 1.7
2014-Oct-13 19:31N 46°01' W 073°10'0 0.0
2014-Oct-13 18:31N 46°01' W 073°10'0 0.0
2014-Oct-13 16:33N 46°01' W 073°10'0 0.0
2014-Oct-13 15:19N 46°01' W 073°10'0 0.0
2014-Oct-13 14:19N 46°01' W 073°10'0 0.0
2014-Oct-13 13:13N 46°01' W 073°10'0 0.0
2014-Oct-13 12:31N 46°01' W 073°10'0 0.0
2014-Oct-13 11:31N 46°01' W 073°10'0 0.0
2014-Oct-13 10:25N 46°01' W 073°10'0 0.0
2014-Oct-13 09:31N 46°01' W 073°10'0 0.0
2014-Oct-13 08:22N 46°01' W 073°10'0 0.0
2014-Oct-13 07:31N 46°01' W 073°10'0 0.0
2014-Oct-13 06:07N 46°01' W 073°10'0 0.0
2014-Oct-13 05:28N 46°01' W 073°10'0 0.0
2014-Oct-13 04:31N 46°01' W 073°10'0 0.0
2014-Oct-13 03:31N 46°01' W 073°10'0 0.0
2014-Oct-13 02:25N 46°01' W 073°10'0 0.0
2014-Oct-13 01:31N 46°01' W 073°10'0 0.0
2014-Oct-13 00:31N 46°01' W 073°10'0 0.0
2014-Oct-12 23:25N 46°01' W 073°10'0 0.0
2014-Oct-12 21:31N 46°01' W 073°10'0 0.0
2014-Oct-12 19:31N 46°01' W 073°10'0 0.0
2014-Oct-12 18:28N 46°01' W 073°10'0 0.0
2014-Oct-12 17:16N 46°01' W 073°10'0 0.0
2014-Oct-12 16:22N 46°01' W 073°10'0 0.0
2014-Oct-12 14:28N 46°01' W 073°10'0 0.0
2014-Oct-12 13:31N 46°01' W 073°10'0 0.0
2014-Oct-12 12:31N 46°01' W 073°10'0 0.0
2014-Oct-12 11:31N 46°01' W 073°10'0 0.0
2014-Oct-12 10:31N 46°01' W 073°10'0 0.0
2014-Oct-12 09:31N 46°01' W 073°10'0 0.0
2014-Oct-12 08:31N 46°01' W 073°10'0 0.0
2014-Oct-12 07:28N 46°01' W 073°10'0 0.0
2014-Oct-12 06:31N 46°01' W 073°10'0 0.0
2014-Oct-12 05:31N 46°01' W 073°10'0 0.0
2014-Oct-12 04:25N 46°01' W 073°10'0 0.0
2014-Oct-12 03:31N 46°01' W 073°10'0 0.0
2014-Oct-12 02:28N 46°01' W 073°10'0 0.0
2014-Oct-12 01:31N 46°01' W 073°10'0 0.0
2014-Oct-12 00:22N 46°01' W 073°10'0 0.0
2014-Oct-11 23:28N 46°01' W 073°10'0 0.0
2014-Oct-11 22:31N 46°01' W 073°10'0 0.0
2014-Oct-11 21:19N 46°01' W 073°10'0 0.0
2014-Oct-11 20:22N 46°01' W 073°10'0 0.0
2014-Oct-11 19:31N 46°01' W 073°10'0 0.0
2014-Oct-11 18:25N 46°01' W 073°10'0 0.0
2014-Oct-11 14:25N 46°01' W 073°10'0 0.0
2014-Oct-11 13:31N 46°01' W 073°10'0 0.0
2014-Oct-11 12:31N 46°01' W 073°10'0 0.0
2014-Oct-11 11:31N 46°01' W 073°10'0 0.0
2014-Oct-11 10:31N 46°01' W 073°10'0 0.0
2014-Oct-11 09:31N 46°01' W 073°10'0 0.0
2014-Oct-11 08:31N 46°01' W 073°10'0 0.0
2014-Oct-11 07:31N 46°01' W 073°10'0 0.0
2014-Oct-11 06:31N 46°01' W 073°10'0 0.0
2014-Oct-11 05:31N 46°01' W 073°10'0 0.0
2014-Oct-11 04:28N 46°01' W 073°10'0 0.0
2014-Oct-11 03:28N 46°01' W 073°10'0 0.0
2014-Oct-10 21:25N 46°01' W 073°10'0 0.0
2014-Oct-10 20:31N 46°01' W 073°10'0 0.0
2014-Oct-10 19:25N 46°01' W 073°10'0 0.0
2014-Oct-10 18:31N 46°01' W 073°10'0 0.0
2014-Oct-10 17:19N 46°01' W 073°10'0 0.0
2014-Oct-10 16:22N 46°01' W 073°10'0 0.0
2014-Oct-10 15:28N 46°01' W 073°10'0 0.0
2014-Oct-10 14:31N 46°01' W 073°10'0 0.0
2014-Oct-10 13:25N 46°01' W 073°10'0 0.0
2014-Oct-10 12:31N 46°01' W 073°10'0 0.0
2014-Oct-10 11:31N 46°01' W 073°10'0 0.0
2014-Oct-10 10:25N 46°01' W 073°10'0 0.0
2014-Oct-10 09:31N 46°01' W 073°10'0 0.0
2014-Oct-10 08:31N 46°01' W 073°10'0 0.0
2014-Oct-10 07:31N 46°01' W 073°10'0 0.0
2014-Oct-10 06:31N 46°01' W 073°10'0 0.0
2014-Oct-10 05:28N 46°01' W 073°10'0 0.0
2014-Oct-10 04:31N 46°01' W 073°10'0 0.0
2014-Oct-10 03:31N 46°01' W 073°10'0 0.0
2014-Oct-10 02:31N 46°01' W 073°10'0 0.0
2014-Oct-10 01:31N 46°01' W 073°10'0 0.0
2014-Oct-09 21:31N 46°01' W 073°10'0 0.0
2014-Oct-09 20:31N 46°01' W 073°10'0 0.0
2014-Oct-09 19:25N 46°01' W 073°10'0 0.0
2014-Oct-09 10:19N 46°01' W 073°10'0 0.0
2014-Oct-09 09:31N 46°01' W 073°10'0 0.0
2014-Oct-09 08:28N 46°01' W 073°10'0 0.0
2014-Oct-09 07:22N 46°01' W 073°10'0 0.0
2014-Oct-09 06:31N 46°01' W 073°10'0 0.0
2014-Oct-09 05:25N 46°01' W 073°10'0 0.0
2014-Oct-09 04:25N 46°01' W 073°10'0 0.0
2014-Oct-09 03:31N 46°01' W 073°10'0 0.0
2014-Oct-09 02:31N 46°01' W 073°10'0 0.0
2014-Oct-09 01:31N 46°01' W 073°10'0 0.0
2014-Oct-09 00:31N 46°01' W 073°10'0 0.0
2014-Oct-08 23:25N 46°01' W 073°10'0 0.0
2014-Oct-08 22:31N 46°01' W 073°10'0 0.0
2014-Oct-08 21:31N 46°01' W 073°10'0 0.0
2014-Oct-08 20:31N 46°01' W 073°10'0 0.0
2014-Oct-08 19:31N 46°01' W 073°10'0 0.0
2014-Oct-08 18:16N 46°01' W 073°10'0 0.0
2014-Oct-08 17:31N 46°01' W 073°10'0 0.0
2014-Oct-08 16:28N 46°01' W 073°10'0 0.0
2014-Oct-08 15:31N 46°01' W 073°10'0 0.0
2014-Oct-08 14:28N 46°01' W 073°10'0 0.0
2014-Oct-08 13:31N 46°01' W 073°10'0 0.0
2014-Oct-08 12:28N 46°01' W 073°10'0 0.0
2014-Oct-08 11:10N 46°01' W 073°10'0 0.0
2014-Oct-08 08:28N 46°01' W 073°10'  
Track history (hours):
 
Tides and Currents Weather Stations Pressure Air Temp Water Temp Dewpoint Dewpoint Depression Visibility Wind Speed Wind Dir Waves Ship Positions

Atlantic Horizon

Last reported at 2014-Oct-18 08:08 UTC. Time now 2014-Oct-24 07:48 UTC.
Position N 46°33' W 072°09'.

Length 225 m; draft 10.9 m.

Type: Cargo ship. MMSI: 311010300.

Date/timePositionNaut miles runAvg speedWind from/ knotsBaromVisibWave heightAir tempDewpointWater temp
2014-Oct-18 08:08N 46°33' W 072°09'6 9.9
2014-Oct-18 07:33N 46°29' W 072°14'1010.2
2014-Oct-18 06:34N 46°23' W 072°27'10 9.8
2014-Oct-18 05:33N 46°16' W 072°37'1010.1
2014-Oct-18 04:33N 46°12' W 072°51'1410.3
2014-Oct-18 03:13N 46°03' W 073°06'35 4.5
2014-Oct-17 19:31N 45°33' W 073°31'0 0.0
2014-Oct-17 17:19N 45°33' W 073°31'0 0.0
2014-Oct-17 15:31N 45°33' W 073°31'0 0.0
2014-Oct-17 14:07N 45°33' W 073°31'0 0.0
2014-Oct-17 11:25N 45°33' W 073°31'0 0.0
2014-Oct-17 09:19N 45°33' W 073°31'0 0.0
2014-Oct-17 08:25N 45°33' W 073°31'0 0.0
2014-Oct-16 13:10N 45°33' W 073°31'0 0.0
2014-Oct-16 12:13N 45°33' W 073°31'0 0.0
2014-Oct-16 11:04N 45°33' W 073°31'0 0.0
2014-Oct-16 10:16N 45°33' W 073°31'0 0.0
2014-Oct-16 08:22N 45°33' W 073°31'0 0.0
2014-Oct-16 07:04N 45°33' W 073°31'0 0.0
2014-Oct-16 05:28N 45°33' W 073°31'0 0.0
2014-Oct-16 04:25N 45°33' W 073°31'0 0.0
2014-Oct-16 03:28N 45°33' W 073°31'0 0.0
2014-Oct-16 02:31N 45°33' W 073°31'0 0.0
2014-Oct-16 01:31N 45°33' W 073°31'0 0.0
2014-Oct-16 00:31N 45°33' W 073°31'0 0.0
2014-Oct-15 23:28N 45°33' W 073°31'0 0.0
2014-Oct-15 22:28N 45°33' W 073°31'0 0.0
2014-Oct-15 21:28N 45°33' W 073°31'0 0.0
2014-Oct-15 20:28N 45°33' W 073°31'0 0.0
2014-Oct-15 19:28N 45°33' W 073°31'0 0.0
2014-Oct-15 18:31N 45°33' W 073°31'0 0.0
2014-Oct-15 11:10N 45°33' W 073°31'0 0.0
2014-Oct-15 10:28N 45°33' W 073°31'0 0.0
2014-Oct-15 09:28N 45°33' W 073°31'0 0.0
2014-Oct-15 08:10N 45°33' W 073°31'0 0.0
2014-Oct-15 07:28N 45°33' W 073°31'0 0.0
2014-Oct-15 06:22N 45°33' W 073°31'0 0.0
2014-Oct-15 05:22N 45°33' W 073°31'0 0.0
2014-Oct-15 04:10N 45°33' W 073°31'0 0.0
2014-Oct-15 03:22N 45°33' W 073°31'0 0.0
2014-Oct-15 02:28N 45°33' W 073°31'0 0.0
2014-Oct-15 01:28N 45°33' W 073°31'0 0.0
2014-Oct-14 17:25N 45°33' W 073°31'0 0.0
2014-Oct-14 16:04N 45°33' W 073°31'0 0.0
2014-Oct-14 15:25N 45°33' W 073°31'0 0.0
2014-Oct-14 14:25N 45°33' W 073°31'0 0.0
2014-Oct-14 13:13N 45°33' W 073°31'0 0.0
2014-Oct-14 12:31N 45°33' W 073°31'0 0.0
2014-Oct-14 11:31N 45°33' W 073°31'0 0.0
2014-Oct-14 10:31N 45°33' W 073°31'0 0.0
2014-Oct-14 09:31N 45°33' W 073°31'0 0.0
2014-Oct-14 08:31N 45°33' W 073°31'0 0.0
2014-Oct-14 07:31N 45°33' W 073°31'0 0.0
2014-Oct-14 06:31N 45°33' W 073°31'0 0.0
2014-Oct-14 05:31N 45°33' W 073°31'0 0.0
2014-Oct-14 04:31N 45°33' W 073°31'0 0.0
2014-Oct-14 03:28N 45°33' W 073°31'0 0.0
2014-Oct-14 02:31N 45°33' W 073°31'0 0.0
2014-Oct-14 01:33N 45°33' W 073°31'2 2.0
2014-Oct-14 00:33N 45°35' W 073°30'8 7.7
2014-Oct-13 23:33N 45°42' W 073°26'9 8.6
2014-Oct-13 22:34N 45°49' W 073°19'10 9.5
2014-Oct-13 21:33N 45°58' W 073°12'3 1.7
2014-Oct-13 19:31N 46°01' W 073°10'0 0.0
2014-Oct-13 18:31N 46°01' W 073°10'0 0.0
2014-Oct-13 16:33N 46°01' W 073°10'0 0.0
2014-Oct-13 15:19N 46°01' W 073°10'0 0.0
2014-Oct-13 14:19N 46°01' W 073°10'0 0.0
2014-Oct-13 13:13N 46°01' W 073°10'0 0.0
2014-Oct-13 12:31N 46°01' W 073°10'0 0.0
2014-Oct-13 11:31N 46°01' W 073°10'0 0.0
2014-Oct-13 10:25N 46°01' W 073°10'0 0.0
2014-Oct-13 09:31N 46°01' W 073°10'0 0.0
2014-Oct-13 08:22N 46°01' W 073°10'0 0.0
2014-Oct-13 07:31N 46°01' W 073°10'0 0.0
2014-Oct-13 06:07N 46°01' W 073°10'0 0.0
2014-Oct-13 05:28N 46°01' W 073°10'0 0.0
2014-Oct-13 04:31N 46°01' W 073°10'0 0.0
2014-Oct-13 03:31N 46°01' W 073°10'0 0.0
2014-Oct-13 02:25N 46°01' W 073°10'0 0.0
2014-Oct-13 01:31N 46°01' W 073°10'0 0.0
2014-Oct-13 00:31N 46°01' W 073°10'0 0.0
2014-Oct-12 23:25N 46°01' W 073°10'0 0.0
2014-Oct-12 21:31N 46°01' W 073°10'0 0.0
2014-Oct-12 19:31N 46°01' W 073°10'0 0.0
2014-Oct-12 18:28N 46°01' W 073°10'0 0.0
2014-Oct-12 17:16N 46°01' W 073°10'0 0.0
2014-Oct-12 16:22N 46°01' W 073°10'0 0.0
2014-Oct-12 14:28N 46°01' W 073°10'0 0.0
2014-Oct-12 13:31N 46°01' W 073°10'0 0.0
2014-Oct-12 12:31N 46°01' W 073°10'0 0.0
2014-Oct-12 11:31N 46°01' W 073°10'0 0.0
2014-Oct-12 10:31N 46°01' W 073°10'0 0.0
2014-Oct-12 09:31N 46°01' W 073°10'0 0.0
2014-Oct-12 08:31N 46°01' W 073°10'0 0.0
2014-Oct-12 07:28N 46°01' W 073°10'0 0.0
2014-Oct-12 06:31N 46°01' W 073°10'0 0.0
2014-Oct-12 05:31N 46°01' W 073°10'0 0.0
2014-Oct-12 04:25N 46°01' W 073°10'0 0.0
2014-Oct-12 03:31N 46°01' W 073°10'0 0.0
2014-Oct-12 02:28N 46°01' W 073°10'0 0.0
2014-Oct-12 01:31N 46°01' W 073°10'0 0.0
2014-Oct-12 00:22N 46°01' W 073°10'0 0.0
2014-Oct-11 23:28N 46°01' W 073°10'0 0.0
2014-Oct-11 22:31N 46°01' W 073°10'0 0.0
2014-Oct-11 21:19N 46°01' W 073°10'0 0.0
2014-Oct-11 20:22N 46°01' W 073°10'0 0.0
2014-Oct-11 19:31N 46°01' W 073°10'0 0.0
2014-Oct-11 18:25N 46°01' W 073°10'0 0.0
2014-Oct-11 14:25N 46°01' W 073°10'0 0.0
2014-Oct-11 13:31N 46°01' W 073°10'0 0.0
2014-Oct-11 12:31N 46°01' W 073°10'0 0.0
2014-Oct-11 11:31N 46°01' W 073°10'0 0.0
2014-Oct-11 10:31N 46°01' W 073°10'0 0.0
2014-Oct-11 09:31N 46°01' W 073°10'0 0.0
2014-Oct-11 08:31N 46°01' W 073°10'0 0.0
2014-Oct-11 07:31N 46°01' W 073°10'0 0.0
2014-Oct-11 06:31N 46°01' W 073°10'0 0.0
2014-Oct-11 05:31N 46°01' W 073°10'0 0.0
2014-Oct-11 04:28N 46°01' W 073°10'0 0.0
2014-Oct-11 03:28N 46°01' W 073°10'0 0.0
2014-Oct-10 21:25N 46°01' W 073°10'0 0.0
2014-Oct-10 20:31N 46°01' W 073°10'0 0.0
2014-Oct-10 19:25N 46°01' W 073°10'0 0.0
2014-Oct-10 18:31N 46°01' W 073°10'0 0.0
2014-Oct-10 17:19N 46°01' W 073°10'0 0.0
2014-Oct-10 16:22N 46°01' W 073°10'0 0.0
2014-Oct-10 15:28N 46°01' W 073°10'0 0.0
2014-Oct-10 14:31N 46°01' W 073°10'0 0.0
2014-Oct-10 13:25N 46°01' W 073°10'0 0.0
2014-Oct-10 12:31N 46°01' W 073°10'0 0.0
2014-Oct-10 11:31N 46°01' W 073°10'0 0.0
2014-Oct-10 10:25N 46°01' W 073°10'0 0.0
2014-Oct-10 09:31N 46°01' W 073°10'0 0.0
2014-Oct-10 08:31N 46°01' W 073°10'0 0.0
2014-Oct-10 07:31N 46°01' W 073°10'0 0.0
2014-Oct-10 06:31N 46°01' W 073°10'0 0.0
2014-Oct-10 05:28N 46°01' W 073°10'0 0.0
2014-Oct-10 04:31N 46°01' W 073°10'0 0.0
2014-Oct-10 03:31N 46°01' W 073°10'0 0.0
2014-Oct-10 02:31N 46°01' W 073°10'0 0.0
2014-Oct-10 01:31N 46°01' W 073°10'0 0.0
2014-Oct-09 21:31N 46°01' W 073°10'0 0.0
2014-Oct-09 20:31N 46°01' W 073°10'0 0.0
2014-Oct-09 19:25N 46°01' W 073°10'0 0.0
2014-Oct-09 10:19N 46°01' W 073°10'0 0.0
2014-Oct-09 09:31N 46°01' W 073°10'0 0.0
2014-Oct-09 08:28N 46°01' W 073°10'0 0.0
2014-Oct-09 07:22N 46°01' W 073°10'0 0.0
2014-Oct-09 06:31N 46°01' W 073°10'0 0.0
2014-Oct-09 05:25N 46°01' W 073°10'0 0.0
2014-Oct-09 04:25N 46°01' W 073°10'0 0.0
2014-Oct-09 03:31N 46°01' W 073°10'0 0.0
2014-Oct-09 02:31N 46°01' W 073°10'0 0.0
2014-Oct-09 01:31N 46°01' W 073°10'0 0.0
2014-Oct-09 00:31N 46°01' W 073°10'0 0.0
2014-Oct-08 23:25N 46°01' W 073°10'0 0.0
2014-Oct-08 22:31N 46°01' W 073°10'0 0.0
2014-Oct-08 21:31N 46°01' W 073°10'0 0.0
2014-Oct-08 20:31N 46°01' W 073°10'0 0.0
2014-Oct-08 19:31N 46°01' W 073°10'0 0.0
2014-Oct-08 18:16N 46°01' W 073°10'0 0.0
2014-Oct-08 17:31N 46°01' W 073°10'0 0.0
2014-Oct-08 16:28N 46°01' W 073°10'0 0.0
2014-Oct-08 15:31N 46°01' W 073°10'0 0.0
2014-Oct-08 14:28N 46°01' W 073°10'0 0.0
2014-Oct-08 13:31N 46°01' W 073°10'0 0.0
2014-Oct-08 12:28N 46°01' W 073°10'0 0.0
2014-Oct-08 11:10N 46°01' W 073°10'0 0.0
2014-Oct-08 08:28N 46°01' W 073°10'  

Dump ship's entire track history